createdAt,value
2022-08-06T00:00:07.582Z,845.98
2022-08-06T00:01:01.442Z,845.93
2022-08-06T00:02:00.600Z,845.75
2022-08-06T00:03:00.426Z,845.75
2022-08-06T00:04:00.390Z,845.76
2022-08-06T00:05:00.383Z,845.67
2022-08-06T00:06:00.370Z,845.51
2022-08-06T00:07:00.351Z,845.48
2022-08-06T00:08:02.142Z,845.56
2022-08-06T00:09:00.334Z,845.46
2022-08-06T00:10:02.216Z,845.46
2022-08-06T00:11:00.302Z,845.52
2022-08-06T00:12:00.306Z,845.40
2022-08-06T00:13:02.144Z,845.30
2022-08-06T00:14:00.315Z,845.18
2022-08-06T00:15:00.274Z,845.37
2022-08-06T00:16:09.890Z,845.23
2022-08-06T00:17:01.258Z,845.26
2022-08-06T00:18:00.234Z,845.22
2022-08-06T00:19:00.234Z,845.26
2022-08-06T00:20:00.825Z,845.27
2022-08-06T00:21:00.555Z,845.37
2022-08-06T00:22:00.188Z,845.22
2022-08-06T00:23:01.047Z,845.27
2022-08-06T00:24:00.194Z,845.29
2022-08-06T00:25:00.159Z,845.21
2022-08-06T00:26:00.155Z,845.28
2022-08-06T00:27:05.611Z,845.25
2022-08-06T00:28:01.142Z,845.24
2022-08-06T00:29:00.102Z,845.05
2022-08-06T00:30:05.451Z,844.99
2022-08-06T00:31:09.863Z,845.13
2022-08-06T00:32:01.095Z,845.16
2022-08-06T00:33:00.067Z,845.20
2022-08-06T00:34:00.066Z,845.20
2022-08-06T00:35:00.080Z,845.04
2022-08-06T00:36:00.048Z,845.01
2022-08-06T00:37:00.467Z,845.22
2022-08-06T00:38:00.033Z,844.95
2022-08-06T00:39:00.246Z,844.95
2022-08-06T00:40:00.048Z,845.02
2022-08-06T00:40:59.995Z,844.92
2022-08-06T00:41:59.966Z,844.86
2022-08-06T00:43:00.994Z,845.04
2022-08-06T00:44:02.430Z,845.08
2022-08-06T00:44:59.935Z,845.00
2022-08-06T00:45:59.955Z,844.86
2022-08-06T00:46:59.920Z,844.94
2022-08-06T00:48:02.917Z,844.97
2022-08-06T00:49:10.843Z,844.84
2022-08-06T00:50:02.276Z,844.81
2022-08-06T00:51:00.999Z,844.94
2022-08-06T00:51:59.859Z,844.89
2022-08-06T00:52:59.839Z,844.89
2022-08-06T00:53:59.828Z,844.89
2022-08-06T00:54:59.827Z,844.85
2022-08-06T00:56:01.524Z,844.81
2022-08-06T00:56:59.929Z,844.67
2022-08-06T00:57:59.807Z,844.79
2022-08-06T00:59:03.180Z,844.78
2022-08-06T00:59:59.787Z,844.72
2022-08-06T01:00:59.759Z,844.68
2022-08-06T01:01:59.799Z,844.78
2022-08-06T01:02:59.718Z,844.80
2022-08-06T01:03:59.719Z,844.77
2022-08-06T01:05:00.688Z,844.87
2022-08-06T01:06:51.973Z,844.74
2022-08-06T01:07:01.167Z,844.84
2022-08-06T01:07:59.790Z,844.87
2022-08-06T01:08:59.659Z,844.76
2022-08-06T01:09:59.651Z,844.82
2022-08-06T01:10:59.660Z,844.80
2022-08-06T01:12:00.154Z,844.79
2022-08-06T01:12:59.613Z,844.93
2022-08-06T01:14:02.678Z,844.85
2022-08-06T01:15:02.722Z,844.81
2022-08-06T01:16:08.272Z,844.79
2022-08-06T01:17:02.510Z,844.91
2022-08-06T01:18:00.547Z,844.93
2022-08-06T01:18:59.903Z,844.85
2022-08-06T01:21:56.425Z,844.84
2022-08-06T01:21:57.219Z,844.85
2022-08-06T01:22:31.611Z,844.98
2022-08-06T01:23:00.499Z,844.88
2022-08-06T01:23:59.479Z,844.89
2022-08-06T01:24:59.488Z,844.84
2022-08-06T01:25:59.472Z,844.77
2022-08-06T01:26:59.486Z,844.86
2022-08-06T01:27:59.439Z,844.79
2022-08-06T01:28:59.440Z,844.82
2022-08-06T01:29:59.420Z,844.80
2022-08-06T01:30:59.431Z,844.75
2022-08-06T01:31:59.400Z,844.80
2022-08-06T01:32:59.620Z,844.69
2022-08-06T01:33:59.364Z,844.67
2022-08-06T01:34:59.507Z,844.70
2022-08-06T01:35:59.360Z,844.68
2022-08-06T01:36:59.354Z,844.71
2022-08-06T01:38:00.860Z,844.66
2022-08-06T01:39:01.169Z,844.61
2022-08-06T01:40:02.791Z,844.67
2022-08-06T01:41:00.298Z,844.47
2022-08-06T01:41:59.459Z,844.51
2022-08-06T01:42:59.292Z,844.49
2022-08-06T01:44:05.608Z,844.28
2022-08-06T01:45:00.252Z,844.40
2022-08-06T01:45:59.241Z,844.30
2022-08-06T01:46:59.241Z,844.35
2022-08-06T01:47:59.226Z,844.17
2022-08-06T01:48:59.204Z,844.10
2022-08-06T01:50:03.767Z,844.10
2022-08-06T01:50:59.183Z,843.99
2022-08-06T01:52:14.428Z,844.14
2022-08-06T01:53:01.319Z,844.00
2022-08-06T01:54:07.070Z,843.97
2022-08-06T01:55:00.152Z,844.02
2022-08-06T01:55:59.624Z,843.92
2022-08-06T01:56:59.127Z,843.88
2022-08-06T01:58:07.370Z,843.90
2022-08-06T01:59:00.111Z,843.81
2022-08-06T01:59:59.077Z,844.03
2022-08-06T02:01:01.196Z,843.89
2022-08-06T02:01:59.164Z,843.83
2022-08-06T02:02:59.053Z,843.78
2022-08-06T02:03:59.553Z,843.73
2022-08-06T02:05:01.803Z,843.72
2022-08-06T02:06:00.021Z,843.60
2022-08-06T02:06:59.013Z,843.62
2022-08-06T02:08:39.054Z,843.75
2022-08-06T02:09:21.829Z,843.65
2022-08-06T02:09:59.972Z,843.67
2022-08-06T02:10:58.968Z,843.61
2022-08-06T02:12:03.772Z,843.69
2022-08-06T02:13:03.005Z,843.65
2022-08-06T02:13:58.931Z,843.58
2022-08-06T02:14:58.970Z,843.69
2022-08-06T02:16:00.355Z,843.62
2022-08-06T02:16:58.884Z,843.62
2022-08-06T02:18:07.069Z,843.58
2022-08-06T02:18:59.885Z,843.64
2022-08-06T02:20:05.018Z,843.72
2022-08-06T02:21:18.868Z,843.66
2022-08-06T02:21:59.844Z,843.63
2022-08-06T02:22:58.836Z,843.75
2022-08-06T02:23:58.825Z,843.69
2022-08-06T02:25:02.237Z,843.77
2022-08-06T02:25:58.832Z,843.71
2022-08-06T02:26:58.777Z,843.69
2022-08-06T02:27:59.522Z,843.68
2022-08-06T02:28:58.765Z,843.68
2022-08-06T02:30:06.297Z,843.61
2022-08-06T02:30:59.752Z,843.70
2022-08-06T02:32:01.852Z,843.66
2022-08-06T02:33:02.739Z,843.65
2022-08-06T02:34:02.742Z,843.58
2022-08-06T02:34:59.716Z,843.47
2022-08-06T02:36:02.307Z,843.52
2022-08-06T02:36:58.668Z,843.46
2022-08-06T02:38:01.256Z,843.54
2022-08-06T02:38:58.735Z,843.51
2022-08-06T02:39:58.706Z,843.48
2022-08-06T02:40:58.629Z,843.39
2022-08-06T02:41:58.604Z,843.38
2022-08-06T02:42:58.596Z,843.24
2022-08-06T02:43:58.578Z,843.30
2022-08-06T02:44:59.303Z,843.33
2022-08-06T02:45:59.356Z,843.36
2022-08-06T02:46:58.545Z,843.38
2022-08-06T02:48:01.886Z,843.28
2022-08-06T02:48:58.536Z,843.24
2022-08-06T02:49:58.517Z,843.23
2022-08-06T02:50:58.526Z,843.25
2022-08-06T02:52:12.255Z,843.36
2022-08-06T02:52:59.561Z,843.29
2022-08-06T02:54:04.828Z,843.14
2022-08-06T02:54:59.509Z,843.17
2022-08-06T02:55:59.040Z,843.14
2022-08-06T02:56:58.433Z,843.15
2022-08-06T02:58:00.255Z,843.01
2022-08-06T02:58:58.860Z,842.98
2022-08-06T02:59:58.397Z,842.94
2022-08-06T03:00:58.452Z,843.11
2022-08-06T03:01:58.526Z,843.14
2022-08-06T03:02:58.365Z,843.16
2022-08-06T03:03:59.738Z,843.15
2022-08-06T03:04:58.361Z,843.21
2022-08-06T03:05:58.457Z,843.20
2022-08-06T03:06:58.349Z,843.16
2022-08-06T03:07:58.349Z,843.12
2022-08-06T03:08:58.309Z,843.16
2022-08-06T03:09:58.309Z,843.09
2022-08-06T03:10:58.375Z,842.97
2022-08-06T03:11:58.289Z,843.01
2022-08-06T03:12:58.270Z,843.09
2022-08-06T03:13:59.239Z,842.91
2022-08-06T03:15:07.585Z,842.91
2022-08-06T03:16:01.076Z,842.86
2022-08-06T03:16:58.610Z,842.94
2022-08-06T03:17:58.178Z,843.03
2022-08-06T03:19:56.833Z,843.01
2022-08-06T03:19:59.616Z,843.07
2022-08-06T03:20:58.190Z,843.07
2022-08-06T03:21:58.178Z,843.15
2022-08-06T03:22:58.139Z,843.11
2022-08-06T03:23:58.122Z,843.14
2022-08-06T03:24:58.130Z,843.18
2022-08-06T03:25:58.103Z,843.18
2022-08-06T03:26:59.139Z,843.25
2022-08-06T03:28:02.335Z,843.06
2022-08-06T03:28:58.082Z,843.09
2022-08-06T03:29:58.915Z,842.97
2022-08-06T03:30:58.055Z,842.96
2022-08-06T03:32:13.694Z,843.00
2022-08-06T03:32:59.568Z,843.03
2022-08-06T03:33:59.022Z,842.99
2022-08-06T03:34:59.009Z,842.92
2022-08-06T03:35:57.989Z,842.88
2022-08-06T03:36:58.011Z,842.88
2022-08-06T03:37:59.933Z,842.84
2022-08-06T03:38:58.016Z,842.83
2022-08-06T03:39:57.951Z,842.82
2022-08-06T03:40:57.967Z,842.77
2022-08-06T03:42:07.148Z,842.83
2022-08-06T03:42:58.922Z,842.75
2022-08-06T03:44:03.981Z,842.74
2022-08-06T03:44:58.890Z,842.71
2022-08-06T03:45:58.051Z,842.62
2022-08-06T03:46:57.883Z,842.64
2022-08-06T03:48:07.142Z,842.66
2022-08-06T03:48:58.854Z,842.74
2022-08-06T03:49:57.830Z,842.66
2022-08-06T03:50:57.989Z,842.69
2022-08-06T03:51:57.803Z,842.63
2022-08-06T03:52:57.823Z,842.56
2022-08-06T03:53:57.784Z,842.60
2022-08-06T03:54:57.790Z,842.79
2022-08-06T03:55:57.774Z,842.65
2022-08-06T03:56:57.822Z,842.65
2022-08-06T03:57:57.762Z,842.66
2022-08-06T03:58:57.734Z,842.64
2022-08-06T03:59:58.525Z,842.51
2022-08-06T04:00:57.781Z,842.50
2022-08-06T04:01:57.901Z,842.45
2022-08-06T04:02:57.702Z,842.60
2022-08-06T04:03:58.671Z,842.47
2022-08-06T04:04:57.678Z,842.58
2022-08-06T04:05:57.652Z,842.48
2022-08-06T04:06:57.669Z,842.45
2022-08-06T04:07:57.716Z,842.44
2022-08-06T04:08:57.625Z,842.42
2022-08-06T04:10:00.714Z,842.32
2022-08-06T04:10:58.532Z,842.42
2022-08-06T04:12:36.732Z,842.45
2022-08-06T04:13:08.424Z,842.40
2022-08-06T04:14:06.994Z,842.35
2022-08-06T04:14:59.026Z,842.48
2022-08-06T04:15:57.550Z,842.44
2022-08-06T04:16:57.534Z,842.51
2022-08-06T04:17:57.522Z,842.40
2022-08-06T04:18:57.512Z,842.39
2022-08-06T04:19:57.494Z,842.36
2022-08-06T04:21:05.225Z,842.30
2022-08-06T04:23:06.348Z,842.30
2022-08-06T04:23:07.797Z,842.33
2022-08-06T04:23:58.442Z,842.25
2022-08-06T04:24:57.434Z,842.29
2022-08-06T04:25:57.483Z,842.17
2022-08-06T04:26:57.895Z,842.26
2022-08-06T04:27:57.408Z,842.32
2022-08-06T04:28:58.476Z,842.27
2022-08-06T04:29:59.562Z,842.26
2022-08-06T04:30:58.362Z,842.30
2022-08-06T04:32:12.826Z,842.38
2022-08-06T04:33:01.031Z,842.49
2022-08-06T04:33:57.335Z,842.54
2022-08-06T04:36:04.659Z,842.53
2022-08-06T04:36:05.938Z,842.48
2022-08-06T04:36:58.315Z,842.50
2022-08-06T04:38:00.920Z,842.50
2022-08-06T04:38:57.546Z,842.57
2022-08-06T04:39:57.305Z,842.61
2022-08-06T04:40:57.662Z,842.47
2022-08-06T04:42:00.510Z,842.53
2022-08-06T04:42:57.235Z,842.54
2022-08-06T04:43:57.475Z,842.54
2022-08-06T04:44:59.958Z,842.56
2022-08-06T04:46:16.614Z,842.63
2022-08-06T04:46:58.415Z,842.56
2022-08-06T04:47:57.196Z,842.65
2022-08-06T04:49:00.749Z,842.66
2022-08-06T04:49:58.349Z,842.72
2022-08-06T04:50:58.156Z,842.65
2022-08-06T04:52:35.297Z,842.82
2022-08-06T04:52:58.484Z,842.78
2022-08-06T04:53:58.051Z,842.90
2022-08-06T04:54:57.448Z,842.86
2022-08-06T04:56:03.764Z,842.89
2022-08-06T04:56:58.618Z,842.82
2022-08-06T04:58:03.448Z,842.95
2022-08-06T04:58:58.068Z,842.89
2022-08-06T04:59:57.052Z,842.93
2022-08-06T05:01:00.038Z,842.95
2022-08-06T05:02:01.057Z,842.95
2022-08-06T05:02:57.007Z,842.88
2022-08-06T05:04:08.628Z,842.82
2022-08-06T05:04:58.341Z,842.85
2022-08-06T05:05:56.967Z,842.83
2022-08-06T05:06:56.957Z,842.84
2022-08-06T05:07:59.206Z,842.86
2022-08-06T05:08:56.941Z,842.87
2022-08-06T05:09:58.591Z,842.92
2022-08-06T05:10:56.928Z,842.78
2022-08-06T05:11:57.741Z,843.05
2022-08-06T05:12:56.900Z,842.89
2022-08-06T05:13:56.899Z,842.96
2022-08-06T05:14:57.039Z,842.98
2022-08-06T05:15:56.861Z,842.97
2022-08-06T05:16:56.869Z,842.95
2022-08-06T05:17:56.848Z,843.01
2022-08-06T05:19:19.539Z,843.07
2022-08-06T05:19:57.836Z,843.10
2022-08-06T05:20:56.800Z,843.04
2022-08-06T05:22:11.118Z,843.00
2022-08-06T05:23:01.057Z,843.13
2022-08-06T05:23:57.780Z,843.11
2022-08-06T05:25:02.765Z,843.10
2022-08-06T05:25:57.748Z,843.08
2022-08-06T05:26:56.740Z,843.08
2022-08-06T05:28:10.063Z,843.15
2022-08-06T05:28:57.707Z,843.21
2022-08-06T05:29:56.760Z,843.45
2022-08-06T05:30:57.458Z,843.50
2022-08-06T05:31:56.680Z,843.46
2022-08-06T05:32:57.659Z,843.40
2022-08-06T05:33:56.705Z,843.42
2022-08-06T05:34:56.689Z,843.57
2022-08-06T05:36:02.331Z,843.53
2022-08-06T05:36:57.622Z,843.63
2022-08-06T05:38:01.722Z,843.75
2022-08-06T05:38:59.772Z,843.73
2022-08-06T05:39:59.479Z,843.67
2022-08-06T05:40:57.813Z,843.77
2022-08-06T05:41:59.578Z,843.81
2022-08-06T05:42:57.221Z,844.00
2022-08-06T05:43:58.790Z,844.00
2022-08-06T05:44:56.529Z,843.92
2022-08-06T05:45:56.541Z,843.94
2022-08-06T05:46:56.501Z,843.95
2022-08-06T05:47:56.603Z,844.02
2022-08-06T05:48:56.489Z,844.01
2022-08-06T05:50:00.503Z,844.13
2022-08-06T05:50:56.505Z,844.18
2022-08-06T05:51:56.477Z,844.24
2022-08-06T05:52:56.440Z,844.24
2022-08-06T05:54:03.222Z,844.30
2022-08-06T05:54:57.405Z,844.24
2022-08-06T05:55:56.826Z,844.23
2022-08-06T05:56:56.382Z,844.28
2022-08-06T05:57:57.401Z,844.39
2022-08-06T05:58:56.372Z,844.43
2022-08-06T05:59:58.073Z,844.42
2022-08-06T06:00:56.399Z,844.52
2022-08-06T06:01:56.353Z,844.54
2022-08-06T06:02:56.375Z,844.60
2022-08-06T06:03:56.403Z,844.67
2022-08-06T06:05:56.284Z,844.75
2022-08-06T06:06:07.097Z,844.75
2022-08-06T06:06:57.317Z,844.75
2022-08-06T06:08:08.386Z,844.87
2022-08-06T06:09:02.049Z,844.97
2022-08-06T06:10:03.163Z,845.01
2022-08-06T06:10:57.253Z,845.09
2022-08-06T06:12:02.239Z,845.00
2022-08-06T06:12:57.282Z,845.07
2022-08-06T06:13:59.669Z,845.08
2022-08-06T06:14:56.193Z,845.08
2022-08-06T06:16:01.290Z,845.13
2022-08-06T06:16:57.465Z,845.02
2022-08-06T06:17:56.701Z,845.25
2022-08-06T06:18:56.347Z,845.16
2022-08-06T06:19:56.164Z,845.25
2022-08-06T06:21:04.074Z,845.15
2022-08-06T06:21:57.117Z,845.28
2022-08-06T06:22:56.194Z,845.40
2022-08-06T06:23:56.121Z,845.40
2022-08-06T06:24:56.066Z,845.45
2022-08-06T06:25:56.073Z,845.41
2022-08-06T06:26:56.086Z,845.42
2022-08-06T06:27:56.070Z,845.54
2022-08-06T06:28:56.062Z,845.69
2022-08-06T06:30:06.921Z,845.73
2022-08-06T06:31:02.452Z,845.68
2022-08-06T06:32:07.177Z,845.75
2022-08-06T06:32:57.006Z,845.72
2022-08-06T06:33:56.053Z,845.76
2022-08-06T06:34:55.966Z,845.77
2022-08-06T06:35:55.946Z,845.80
2022-08-06T06:36:58.257Z,845.81
2022-08-06T06:37:55.945Z,845.73
2022-08-06T06:38:56.509Z,845.75
2022-08-06T06:39:58.973Z,845.88
2022-08-06T06:41:03.036Z,845.95
2022-08-06T06:41:56.894Z,846.01
2022-08-06T06:42:55.995Z,846.06
2022-08-06T06:43:56.003Z,846.09
2022-08-06T06:45:04.771Z,846.23
2022-08-06T06:46:07.228Z,846.26
2022-08-06T06:46:56.898Z,846.29
2022-08-06T06:47:59.727Z,846.31
2022-08-06T06:48:55.887Z,846.36
2022-08-06T06:50:02.709Z,846.40
2022-08-06T06:50:57.547Z,846.44
2022-08-06T06:51:57.569Z,846.44
2022-08-06T06:52:55.770Z,846.52
2022-08-06T06:54:09.385Z,846.69
2022-08-06T06:54:59.726Z,846.62
2022-08-06T06:55:59.775Z,846.71
2022-08-06T06:56:56.706Z,846.65
2022-08-06T06:57:55.708Z,846.78
2022-08-06T06:58:55.706Z,846.84
2022-08-06T07:00:04.903Z,846.98
2022-08-06T07:01:27.208Z,847.06
2022-08-06T07:01:56.701Z,847.13
2022-08-06T07:02:55.690Z,847.24
2022-08-06T07:03:56.015Z,847.26
2022-08-06T07:04:55.730Z,847.20
2022-08-06T07:06:04.733Z,847.23
2022-08-06T07:06:57.874Z,847.31
2022-08-06T07:07:56.132Z,847.33
2022-08-06T07:08:55.627Z,847.23
2022-08-06T07:10:01.037Z,847.22
2022-08-06T07:10:56.578Z,847.23
2022-08-06T07:12:03.355Z,847.25
2022-08-06T07:12:56.546Z,847.28
2022-08-06T07:13:58.818Z,847.35
2022-08-06T07:15:00.506Z,847.40
2022-08-06T07:15:56.512Z,847.41
2022-08-06T07:16:55.518Z,847.18
2022-08-06T07:17:59.248Z,847.21
2022-08-06T07:18:56.472Z,847.25
2022-08-06T07:19:55.501Z,847.27
2022-08-06T07:20:55.440Z,847.22
2022-08-06T07:21:55.450Z,847.29
2022-08-06T07:24:03.298Z,847.54
2022-08-06T07:24:07.257Z,847.57
2022-08-06T07:24:57.627Z,847.69
2022-08-06T07:25:55.781Z,847.71
2022-08-06T07:26:55.510Z,847.61
2022-08-06T07:27:55.768Z,847.72
2022-08-06T07:29:03.333Z,847.75
2022-08-06T07:29:59.927Z,847.73
2022-08-06T07:30:55.355Z,847.72
2022-08-06T07:31:55.362Z,847.84
2022-08-06T07:32:55.342Z,847.84
2022-08-06T07:34:01.829Z,847.83
2022-08-06T07:34:56.358Z,848.00
2022-08-06T07:35:55.323Z,848.10
2022-08-06T07:36:57.363Z,848.37
2022-08-06T07:37:55.250Z,848.48
2022-08-06T07:38:55.240Z,848.49
2022-08-06T07:39:55.253Z,848.41
2022-08-06T07:40:55.224Z,848.49
2022-08-06T07:42:11.353Z,848.41
2022-08-06T07:42:56.202Z,848.13
2022-08-06T07:43:55.527Z,848.56
2022-08-06T07:44:56.827Z,848.54
2022-08-06T07:45:56.292Z,848.45
2022-08-06T07:46:55.143Z,848.63
2022-08-06T07:47:56.017Z,848.68
2022-08-06T07:48:55.155Z,848.75
2022-08-06T07:50:00.603Z,848.91
2022-08-06T07:50:56.353Z,848.82
2022-08-06T07:51:55.156Z,848.81
2022-08-06T07:52:55.193Z,848.84
2022-08-06T07:53:57.425Z,848.88
2022-08-06T07:54:55.068Z,848.80
2022-08-06T07:55:55.090Z,848.73
2022-08-06T07:57:01.624Z,849.14
2022-08-06T07:57:59.538Z,849.29
2022-08-06T07:58:56.245Z,849.37
2022-08-06T07:59:55.804Z,849.32
2022-08-06T08:00:55.008Z,849.47
2022-08-06T08:01:55.067Z,849.49
2022-08-06T08:02:54.963Z,849.40
2022-08-06T08:03:58.126Z,849.34
2022-08-06T08:04:54.946Z,849.33
2022-08-06T08:06:00.613Z,849.47
2022-08-06T08:06:55.943Z,849.42
2022-08-06T08:07:57.212Z,849.47
2022-08-06T08:08:56.716Z,849.61
2022-08-06T08:10:02.332Z,849.67
2022-08-06T08:10:55.879Z,849.85
2022-08-06T08:12:25.693Z,849.92
2022-08-06T08:12:55.984Z,850.03
2022-08-06T08:13:56.744Z,850.13
2022-08-06T08:14:54.855Z,850.21
2022-08-06T08:15:54.862Z,850.21
2022-08-06T08:16:54.814Z,850.15
2022-08-06T08:17:56.220Z,850.29
2022-08-06T08:18:54.798Z,850.35
2022-08-06T08:19:54.808Z,850.53
2022-08-06T08:20:54.767Z,850.50
2022-08-06T08:21:54.778Z,850.67
2022-08-06T08:22:54.738Z,850.74
2022-08-06T08:23:55.644Z,850.77
2022-08-06T08:24:55.036Z,850.97
2022-08-06T08:25:54.719Z,851.11
2022-08-06T08:27:22.353Z,851.04
2022-08-06T08:27:55.687Z,851.23
2022-08-06T08:28:54.707Z,851.17
2022-08-06T08:29:57.049Z,851.18
2022-08-06T08:30:54.650Z,851.12
2022-08-06T08:32:00.062Z,851.07
2022-08-06T08:32:55.734Z,851.06
2022-08-06T08:33:54.900Z,850.84
2022-08-06T08:34:56.176Z,850.81
2022-08-06T08:36:00.927Z,850.75
2022-08-06T08:36:55.651Z,850.93
2022-08-06T08:37:54.679Z,850.96
2022-08-06T08:38:54.691Z,851.02
2022-08-06T08:39:55.653Z,851.25
2022-08-06T08:40:54.552Z,851.26
2022-08-06T08:41:54.572Z,851.29
2022-08-06T08:42:55.231Z,850.97
2022-08-06T08:44:00.561Z,851.03
2022-08-06T08:44:55.502Z,851.20
2022-08-06T08:45:55.647Z,851.38
2022-08-06T08:46:58.012Z,851.41
2022-08-06T08:47:57.358Z,851.42
2022-08-06T08:48:54.617Z,851.41
2022-08-06T08:49:54.461Z,851.49
2022-08-06T08:50:54.422Z,851.64
2022-08-06T08:51:54.442Z,851.87
2022-08-06T08:52:54.449Z,851.96
2022-08-06T08:53:54.542Z,852.05
2022-08-06T08:54:54.432Z,851.90
2022-08-06T08:57:08.619Z,852.15
2022-08-06T08:57:10.348Z,852.10
2022-08-06T08:59:02.398Z,852.40
2022-08-06T08:59:02.559Z,852.50
2022-08-06T08:59:59.781Z,852.90
2022-08-06T09:00:55.316Z,852.99
2022-08-06T09:01:57.062Z,853.00
2022-08-06T09:02:54.385Z,853.05
2022-08-06T09:03:54.304Z,853.10
2022-08-06T09:04:54.295Z,853.09
2022-08-06T09:05:54.277Z,853.29
2022-08-06T09:06:54.243Z,853.26
2022-08-06T09:08:01.492Z,853.33
2022-08-06T09:09:03.239Z,853.24
2022-08-06T09:10:00.597Z,853.29
2022-08-06T09:10:55.207Z,853.49
2022-08-06T09:12:05.471Z,853.57
2022-08-06T09:12:55.179Z,853.85
2022-08-06T09:13:57.544Z,853.70
2022-08-06T09:14:55.187Z,853.90
2022-08-06T09:15:55.098Z,853.83
2022-08-06T09:16:54.249Z,853.92
2022-08-06T09:18:12.480Z,853.64
2022-08-06T09:18:55.136Z,853.65
2022-08-06T09:19:54.105Z,853.65
2022-08-06T09:20:54.127Z,853.62
2022-08-06T09:21:54.135Z,853.46
2022-08-06T09:22:54.098Z,853.59
2022-08-06T09:23:58.476Z,853.79
2022-08-06T09:24:54.057Z,853.85
2022-08-06T09:25:54.037Z,853.98
2022-08-06T09:26:55.249Z,854.21
2022-08-06T09:27:55.166Z,854.44
2022-08-06T09:28:54.012Z,854.39
2022-08-06T09:30:03.760Z,854.33
2022-08-06T09:30:55.010Z,854.19
2022-08-06T09:31:54.404Z,854.00
2022-08-06T09:32:56.828Z,853.80
2022-08-06T09:34:28.442Z,853.79
2022-08-06T09:34:55.009Z,853.93
2022-08-06T09:35:53.941Z,854.00
2022-08-06T09:36:54.595Z,854.24
2022-08-06T09:37:55.948Z,854.32
2022-08-06T09:38:53.903Z,854.22
2022-08-06T09:40:05.303Z,854.13
2022-08-06T09:40:54.901Z,854.25
2022-08-06T09:41:53.980Z,854.39
2022-08-06T09:42:53.976Z,854.74
2022-08-06T09:44:03.592Z,854.81
2022-08-06T09:44:54.830Z,855.06
2022-08-06T09:45:56.456Z,854.77
2022-08-06T09:46:54.814Z,854.66
2022-08-06T09:47:58.385Z,854.38
2022-08-06T09:49:18.806Z,854.44
2022-08-06T09:50:00.211Z,854.44
2022-08-06T09:50:54.754Z,854.30
2022-08-06T09:51:53.734Z,854.38
2022-08-06T09:52:53.855Z,854.47
2022-08-06T09:54:22.044Z,854.64
2022-08-06T09:54:54.851Z,854.78
2022-08-06T09:55:58.093Z,854.52
2022-08-06T09:56:53.718Z,854.38
2022-08-06T09:57:53.766Z,854.23
2022-08-06T09:58:53.747Z,853.66
2022-08-06T09:59:53.691Z,853.52
2022-08-06T10:00:53.667Z,853.60
2022-08-06T10:01:53.640Z,853.66
2022-08-06T10:02:53.727Z,853.65
2022-08-06T10:04:05.283Z,853.63
2022-08-06T10:04:54.862Z,853.41
2022-08-06T10:05:53.580Z,853.13
2022-08-06T10:06:54.742Z,853.21
2022-08-06T10:07:53.777Z,853.42
2022-08-06T10:08:53.566Z,853.61
2022-08-06T10:09:53.526Z,853.68
2022-08-06T10:10:53.548Z,853.74
2022-08-06T10:11:54.471Z,853.91
2022-08-06T10:12:53.606Z,854.18
2022-08-06T10:13:55.158Z,854.36
2022-08-06T10:14:53.506Z,854.46
2022-08-06T10:16:00.683Z,854.76
2022-08-06T10:16:54.474Z,854.69
2022-08-06T10:17:53.468Z,854.93
2022-08-06T10:18:54.675Z,854.84
2022-08-06T10:19:53.478Z,854.92
2022-08-06T10:20:53.438Z,854.92
2022-08-06T10:21:53.427Z,854.82
2022-08-06T10:22:53.402Z,854.66
2022-08-06T10:23:53.853Z,854.33
2022-08-06T10:24:53.391Z,853.89
2022-08-06T10:25:53.372Z,853.66
2022-08-06T10:26:53.371Z,853.74
2022-08-06T10:27:53.342Z,853.70
2022-08-06T10:28:53.348Z,853.60
2022-08-06T10:29:53.333Z,853.38
2022-08-06T10:30:53.413Z,853.26
2022-08-06T10:31:53.968Z,853.34
2022-08-06T10:32:53.782Z,853.16
2022-08-06T10:33:56.432Z,853.11
2022-08-06T10:34:53.380Z,853.27
2022-08-06T10:35:53.344Z,853.49
2022-08-06T10:36:53.348Z,853.75
2022-08-06T10:37:53.283Z,853.80
2022-08-06T10:38:53.339Z,854.01
2022-08-06T10:40:09.457Z,854.12
2022-08-06T10:40:57.302Z,854.39
2022-08-06T10:42:01.691Z,854.50
2022-08-06T10:42:54.183Z,854.60
2022-08-06T10:43:53.164Z,854.97
2022-08-06T10:44:53.790Z,855.28
2022-08-06T10:45:53.144Z,855.85
2022-08-06T10:46:53.159Z,856.22
2022-08-06T10:49:01.263Z,856.38
2022-08-06T10:50:20.153Z,856.57
2022-08-06T10:50:25.732Z,856.73
2022-08-06T10:50:56.227Z,856.70
2022-08-06T10:51:57.369Z,856.75
2022-08-06T10:52:54.127Z,856.87
2022-08-06T10:54:02.516Z,856.54
2022-08-06T10:54:54.106Z,856.33
2022-08-06T10:55:53.097Z,856.56
2022-08-06T10:56:53.026Z,856.32
2022-08-06T10:57:53.065Z,855.60
2022-08-06T10:58:53.048Z,855.45
2022-08-06T10:59:53.677Z,855.51
2022-08-06T11:00:56.150Z,855.70
2022-08-06T11:01:54.862Z,855.86
2022-08-06T11:02:57.060Z,856.09
2022-08-06T11:03:53.007Z,856.61
2022-08-06T11:04:52.947Z,857.17
2022-08-06T11:05:53.659Z,857.08
2022-08-06T11:06:53.327Z,856.88
2022-08-06T11:08:08.388Z,856.89
2022-08-06T11:08:59.618Z,856.95
2022-08-06T11:10:02.076Z,856.65
2022-08-06T11:10:53.909Z,856.54
2022-08-06T11:12:05.281Z,856.35
2022-08-06T11:12:53.965Z,856.11
2022-08-06T11:13:53.829Z,856.25
2022-08-06T11:14:53.642Z,856.51
2022-08-06T11:15:52.885Z,856.60
2022-08-06T11:16:52.874Z,856.68
2022-08-06T11:17:52.802Z,857.04
2022-08-06T11:18:52.789Z,857.01
2022-08-06T11:19:57.471Z,856.77
2022-08-06T11:20:53.799Z,856.96
2022-08-06T11:21:59.358Z,856.95
2022-08-06T11:22:59.635Z,856.88
2022-08-06T11:24:01.109Z,857.01
2022-08-06T11:24:53.722Z,857.10
2022-08-06T11:25:52.715Z,856.90
2022-08-06T11:27:01.570Z,856.69
2022-08-06T11:27:53.665Z,856.73
2022-08-06T11:28:53.678Z,856.91
2022-08-06T11:30:03.950Z,857.17
2022-08-06T11:30:53.674Z,857.05
2022-08-06T11:31:56.879Z,856.92
2022-08-06T11:32:52.636Z,856.88
2022-08-06T11:33:52.666Z,856.81
2022-08-06T11:34:53.026Z,856.74
2022-08-06T11:35:54.233Z,856.65
2022-08-06T11:36:58.007Z,856.83
2022-08-06T11:38:03.771Z,857.01
2022-08-06T11:38:58.297Z,857.34
2022-08-06T11:39:53.615Z,857.41
2022-08-06T11:40:52.580Z,857.37
2022-08-06T11:41:57.601Z,857.43
2022-08-06T11:42:53.508Z,857.32
2022-08-06T11:44:03.321Z,857.24
2022-08-06T11:44:58.480Z,856.97
2022-08-06T11:46:21.472Z,856.80
2022-08-06T11:46:53.478Z,856.78
2022-08-06T11:47:52.469Z,856.87
2022-08-06T11:48:52.443Z,857.07
2022-08-06T11:49:57.574Z,856.93
2022-08-06T11:50:53.429Z,856.93
2022-08-06T11:51:59.627Z,856.64
2022-08-06T11:52:53.541Z,856.36
2022-08-06T11:53:55.269Z,856.43
2022-08-06T11:54:52.493Z,856.64
2022-08-06T11:55:52.458Z,856.84
2022-08-06T11:56:52.398Z,857.07
2022-08-06T11:57:52.801Z,857.18
2022-08-06T11:58:52.372Z,857.38
2022-08-06T11:59:52.381Z,857.63
2022-08-06T12:00:52.313Z,857.79
2022-08-06T12:01:52.574Z,857.97
2022-08-06T12:02:54.616Z,858.04
2022-08-06T12:03:53.133Z,858.33
2022-08-06T12:04:52.272Z,858.69
2022-08-06T12:05:56.885Z,858.94
2022-08-06T12:06:53.263Z,858.97
2022-08-06T12:07:52.599Z,858.74
2022-08-06T12:08:52.266Z,858.51
2022-08-06T12:09:52.193Z,858.24
2022-08-06T12:10:52.328Z,857.61
2022-08-06T12:11:52.185Z,857.35
2022-08-06T12:12:52.178Z,856.84
2022-08-06T12:13:57.510Z,856.61
2022-08-06T12:14:54.973Z,856.34
2022-08-06T12:16:00.151Z,856.28
2022-08-06T12:16:54.425Z,856.38
2022-08-06T12:18:20.560Z,856.21
2022-08-06T12:18:53.117Z,855.99
2022-08-06T12:20:01.557Z,855.76
2022-08-06T12:20:53.824Z,855.58
2022-08-06T12:21:52.726Z,855.86
2022-08-06T12:22:52.117Z,856.10
2022-08-06T12:23:56.011Z,856.39
2022-08-06T12:25:11.471Z,856.79
2022-08-06T12:25:53.089Z,856.93
2022-08-06T12:26:52.081Z,857.20
2022-08-06T12:27:55.119Z,857.57